KCDC

Cedar City Regional Airport

Cedar City, Utah, USA
METAR KCDC 260353Z AUTO 19008KT 10SM CLR 18/M08 A2997 RMK AO2 SLP076 T01781078
Observed Flight Rules
May-26 @ 03:53 UTC (30 minutes ago) Visual Flight Rules
Wind Visibility Clouds
190° at 8 knots 10 miles
  • Clear skies
Temperatures Readings
Current 18°C / 64°F
Dewpoint -8°C / 18°F
Humidity 16%
Altimeter 29.97" Hg
Pressure 1007.6 hPa
Elevation 1714
METAR KCDC 260353Z AUTO 19008KT 10SM CLR 18/M08 A2997 RMK AO2 SLP076 T01781078
Observed Flight Rules
May-26 @ 03:53 UTC
(30 minutes ago)
VFR
Wind Visibility
190° at 8 knots 10 miles
Clouds
  • Clear skies
Temperature Dewpoint
18°C / 64°F -8°C / 18°F
Humidity Altimeter Pressure
16% 29.97" Hg 1007.6 hPa